This is the latest recevied weather packets stored in our database for station/object NK7E-2. If no packets are shown the sender has not sent any weather packets the latest 10 day(s).
| Time | Temp. | Humidity | Pressure | Rain* | Wind** | Luminosity | Snow |
|---|---|---|---|---|---|---|---|
| 1787781916 | 40.56° C | 15% | 1028 hPa | 0 mm | - | - | - |
| 1787781316 | 40.56° C | 14% | 1028.3 hPa | 0 mm | - | - | - |
| 1787780716 | 40.56° C | 14% | 1028.3 hPa | 0 mm | - | - | - |
| 1787780116 | 40.56° C | 15% | 1028.3 hPa | 0 mm | - | - | - |
| 1787779516 | 40° C | 15% | 1028.4 hPa | 0 mm | - | - | - |
| 1787778916 | 38.89° C | 18% | 1028.9 hPa | 0 mm | - | - | - |
| 1787778316 | 37.78° C | 19% | 1028.8 hPa | 0 mm | - | - | - |
| 1787777716 | 37.78° C | 17% | 1028.7 hPa | 0 mm | - | - | - |
| 1787777116 | 37.78° C | 17% | 1029 hPa | 0 mm | - | - | - |
| 1787776516 | 36.11° C | 21% | 1028.7 hPa | 0 mm | - | - | - |
| 1787775916 | 35.56° C | 23% | 1029.4 hPa | 0 mm | - | - | - |
| 1787775316 | 37.78° C | 23% | 1029.5 hPa | 0 mm | - | - | - |
| 1787774716 | 40° C | 15% | 1029.9 hPa | 0 mm | - | - | - |
| 1787774116 | 41.11° C | 14% | 1029.8 hPa | 0 mm | - | - | - |
| 1787773516 | 41.11° C | 14% | 1029.9 hPa | 0 mm | - | - | - |
| 1787772915 | 41.11° C | 14% | 1030.2 hPa | 0 mm | - | - | - |
| 1787772317 | 40.56° C | 15% | 1030.1 hPa | 0 mm | - | - | - |
| 1787771721 | 40.56° C | 17% | 1030.5 hPa | 0 mm | - | - | - |
| 1787771117 | 41.11° C | 17% | 1030.5 hPa | 0 mm | - | - | - |
| 1787770517 | 40.56° C | 17% | 1030.8 hPa | 0 mm | - | - | - |
| 1787769917 | 40° C | 17% | 1030.7 hPa | 0 mm | - | - | - |
| 1787769317 | 39.44° C | 17% | 1030.6 hPa | 0 mm | - | - | - |
| 1787768717 | 39.44° C | 17% | 1030.8 hPa | 0 mm | - | - | - |
| 1787768117 | 38.89° C | 18% | 1030.4 hPa | 0 mm | - | - | - |
| 1787767522 | 38.33° C | 19% | 1030.5 hPa | 0 mm | - | - | - |
* Rain latest hour (hover to see other rain measurements)
** Current wind speed in m/s (hover to see current wind gust speed)